CheckWX is a tool to help pilots better visualize weather data.  It is not intended as a substitute for an official pre-flight weather briefing.

09:12:20 UTC

KJBR METAR
Jonesboro Municipal Airport
Jonesboro, Arkansas, USA
Current

19 mins ago

KJBR 210853Z AUTO 13003KT 10SM CLR 21/18 A3014 RMK AO2 SLP202 T02110178 50000 TSNO
Observed
Sep-21 @ 08:53 UTC
Wind
  • 130° at 3 KTS
Visibility
10 SM
Flight Rules
VFR
Cloud Levels
  • Clear skies
Temperature
21°C / 70°F
Dewpoint
18°C / 64°F
Humidity
83%
Altimeter
30.14" Hg
Pressure
1020.62 hPa
Previous

1 hour ago

KJBR 210753Z AUTO 19006KT 10SM SCT120 22/19 A3014 RMK AO2 SLP201 T02220189 TSNO
Observed
Sep-21 @ 07:53 UTC
Wind
  • 190° at 6 KTS
Visibility
10 SM
Flight Rules
VFR
Cloud Levels
  • Scattered at 12,000' AGL
Temperature
22°C / 72°F
Dewpoint
19°C / 66°F
Humidity
83%
Altimeter
30.14" Hg
Pressure
1020.62 hPa
Previous

2 hours ago

KJBR 210653Z AUTO 16004KT 10SM CLR 23/19 A3014 RMK AO2 SLP203 T02280189 TSNO
Observed
Sep-21 @ 06:53 UTC
Wind
  • 160° at 4 KTS
Visibility
10 SM
Flight Rules
VFR
Cloud Levels
  • Clear skies
Temperature
23°C / 73°F
Dewpoint
19°C / 66°F
Humidity
78%
Altimeter
30.14" Hg
Pressure
1020.62 hPa